Time;durP1;ratioP1;P1;durP2;ratioP2;P2;SDS_P1;SDS_P2;PMS_P1;PMS_P2;Temp;Humidity;BMP_temperature;BMP_pressure;BME280_temperature;BME280_humidity;BME280_pressure;Samples;Min_cycle;Max_cycle;Signal;HPM_P1;HPM_P2
2021/01/23 00:00:00;;;;;;;2.53;0.60;;;;;;;;;;4952735;28;20092;-88
2021/01/23 00:02:29;;;;;;;3.55;0.68;;;;;;;;;;4955476;28;20048;-88
2021/01/23 00:04:56;;;;;;;2.88;0.77;;;;;;;;;;4968469;28;20034;-86
2021/01/23 00:07:24;;;;;;;3.03;0.60;;;;;;;;;;4963326;28;20041;-88
2021/01/23 00:09:53;;;;;;;3.03;0.68;;;;;;;;;;4943495;28;20729;-87
2021/01/23 00:12:20;;;;;;;5.85;1.40;;;;;;;;;;4918818;28;20031;-88
2021/01/23 00:14:48;;;;;;;4.78;1.10;;;;;;;;;;4966412;28;20064;-89
2021/01/23 00:17:17;;;;;;;7.50;2.35;;;;;;;;;;4972133;28;20049;-89
2021/01/23 00:19:43;;;;;;;5.00;1.60;;;;;;;;;;4977708;28;20074;-89
2021/01/23 00:22:11;;;;;;;3.85;0.85;;;;;;;;;;4954745;28;20037;-89
2021/01/23 00:24:38;;;;;;;4.85;1.00;;;;;;;;;;4983234;28;20042;-89
2021/01/23 00:27:07;;;;;;;5.60;1.00;;;;;;;;;;4972119;28;20225;-90
2021/01/23 00:29:34;;;;;;;6.03;1.25;;;;;;;;;;4940655;28;20053;-89
2021/01/23 00:32:05;;;;;;;4.13;0.82;;;;;;;;;;4965207;28;20096;-89
2021/01/23 00:34:33;;;;;;;6.88;1.92;;;;;;;;;;4999960;28;20585;-90
2021/01/23 00:37:02;;;;;;;7.03;2.22;;;;;;;;;;4994872;28;20085;-89
2021/01/23 00:39:30;;;;;;;10.20;3.60;;;;;;;;;;4929073;28;20305;-90
2021/01/23 00:42:02;;;;;;;5.22;1.15;;;;;;;;;;4910037;28;20087;-88
2021/01/23 00:44:30;;;;;;;6.65;2.45;;;;;;;;;;4897747;28;20245;-89
2021/01/23 00:47:00;;;;;;;5.00;1.33;;;;;;;;;;4936044;28;20031;-89
2021/01/23 00:49:26;;;;;;;8.50;1.73;;;;;;;;;;4932827;28;20100;-88
2021/01/23 00:51:53;;;;;;;;;;;;;;;;;;4929868;28;20175;-89
2021/01/23 00:54:20;;;;;;;4.72;0.93;;;;;;;;;;4926614;28;19922;-87
2021/01/23 00:56:47;;;;;;;;;;;;;;;;;;4906318;28;20027;-88
2021/01/23 00:59:15;;;;;;;4.53;0.73;;;;;;;;;;4946047;28;19922;-88
2021/01/23 01:01:43;;;;;;;6.05;1.63;;;;;;;;;;4950243;28;20089;-86
2021/01/23 01:04:10;;;;;;;7.22;1.52;;;;;;;;;;4920456;28;20129;-87
2021/01/23 01:06:39;;;;;;;3.95;0.70;;;;;;;;;;4966761;28;20041;-86
2021/01/23 01:09:07;;;;;;;5.70;1.60;;;;;;;;;;4959856;28;20050;-87
2021/01/23 01:11:36;;;;;;;3.72;0.80;;;;;;;;;;4945724;28;20078;-89
2021/01/23 01:14:03;;;;;;;7.50;1.85;;;;;;;;;;4951680;28;20049;-88
2021/01/23 01:16:30;;;;;;;5.20;1.20;;;;;;;;;;4968625;28;20118;-87
2021/01/23 01:18:57;;;;;;;6.43;1.13;;;;;;;;;;4945504;28;20038;-86
2021/01/23 01:21:24;;;;;;;4.78;0.90;;;;;;;;;;4924578;28;20181;-88
2021/01/23 01:23:55;;;;;;;7.25;2.35;;;;;;;;;;4930360;28;20046;-87
2021/01/23 01:26:21;;;;;;;7.07;1.48;;;;;;;;;;4925290;28;20070;-87
2021/01/23 01:28:48;;;;;;;7.75;1.30;;;;;;;;;;4971529;28;20117;-87
2021/01/23 01:31:21;;;;;;;9.88;3.75;;;;;;;;;;4958580;28;20034;-86
2021/01/23 01:33:49;;;;;;;9.90;2.28;;;;;;;;;;4974490;28;20088;-87
2021/01/23 01:36:18;;;;;;;6.47;1.90;;;;;;;;;;4977181;28;20506;-87
2021/01/23 01:38:47;;;;;;;7.45;2.22;;;;;;;;;;4970522;28;20501;-87
2021/01/23 01:41:17;;;;;;;7.28;1.40;;;;;;;;;;4968308;28;20050;-87
2021/01/23 01:43:47;;;;;;;7.10;1.30;;;;;;;;;;4967587;28;20046;-87
2021/01/23 01:46:15;;;;;;;10.77;3.13;;;;;;;;;;4957929;28;20129;-87
2021/01/23 01:48:47;;;;;;;6.80;1.00;;;;;;;;;;4981039;28;20080;-87
2021/01/23 01:51:16;;;;;;;7.38;1.83;;;;;;;;;;4990959;28;20160;-88
2021/01/23 01:53:47;;;;;;;7.55;1.90;;;;;;;;;;4929482;28;20031;-88
2021/01/23 01:56:15;;;;;;;9.40;2.10;;;;;;;;;;4971454;28;20510;-87
2021/01/23 01:58:43;;;;;;;8.20;1.77;;;;;;;;;;4955753;28;20044;-90
2021/01/23 02:01:09;;;;;;;5.97;1.48;;;;;;;;;;4964599;28;20031;-91
2021/01/23 02:03:49;;;;;;;7.57;2.45;;;;;;;;;;4934389;28;20057;-91
2021/01/23 02:06:33;;;;;;;5.82;1.42;;;;;;;;;;4959765;28;20173;-91
2021/01/23 02:09:18;;;;;;;3.47;0.88;;;;;;;;;;4974112;28;20031;-91
2021/01/23 02:12:13;;;;;;;6.63;1.50;;;;;;;;;;4951862;28;20781;-91
2021/01/23 02:14:59;;;;;;;3.92;0.77;;;;;;;;;;4939421;28;20034;-91
2021/01/23 02:17:29;;;;;;;3.75;0.68;;;;;;;;;;4950865;28;20043;-92
2021/01/23 02:20:03;;;;;;;4.72;0.88;;;;;;;;;;4941610;28;20034;-91
2021/01/23 02:22:49;;;;;;;2.70;0.60;;;;;;;;;;4974633;28;20083;-92
2021/01/23 02:25:21;;;;;;;5.47;1.38;;;;;;;;;;4964987;28;20037;-92
2021/01/23 02:28:02;;;;;;;5.63;0.90;;;;;;;;;;4963424;28;20030;-92
2021/01/23 02:30:37;;;;;;;3.78;0.80;;;;;;;;;;4952755;28;20050;-92
2021/01/23 02:33:07;;;;;;;2.10;0.70;;;;;;;;;;4959682;28;20089;-92
2021/01/23 02:35:38;;;;;;;4.13;0.60;;;;;;;;;;4943585;28;20038;-92
2021/01/23 02:38:09;;;;;;;6.65;0.70;;;;;;;;;;4939145;28;20049;-92
2021/01/23 02:40:36;;;;;;;5.15;1.10;;;;;;;;;;4938604;28;20030;-91
2021/01/23 02:43:07;;;;;;;4.47;0.85;;;;;;;;;;4922910;28;20038;-92
2021/01/23 02:45:35;;;;;;;5.88;1.02;;;;;;;;;;4979730;28;20046;-92
2021/01/23 02:48:05;;;;;;;3.63;0.70;;;;;;;;;;4986160;28;20059;-91
2021/01/23 02:50:35;;;;;;;7.93;1.80;;;;;;;;;;4968108;28;20042;-91
2021/01/23 02:53:11;;;;;;;8.32;2.10;;;;;;;;;;4976341;28;20030;-91
2021/01/23 02:55:43;;;;;;;7.43;1.50;;;;;;;;;;4981534;28;20049;-92
2021/01/23 02:58:20;;;;;;;8.77;1.20;;;;;;;;;;4977269;28;20038;-92
2021/01/23 03:00:54;;;;;;;6.70;1.30;;;;;;;;;;4998517;28;20034;-91
2021/01/23 03:03:22;;;;;;;9.25;1.10;;;;;;;;;;4973251;28;20152;-91
2021/01/23 03:05:51;;;;;;;10.23;1.50;;;;;;;;;;4991914;28;20049;-91
2021/01/23 03:08:20;;;;;;;9.02;1.10;;;;;;;;;;5001228;28;20037;-91
2021/01/23 03:10:48;;;;;;;8.05;1.02;;;;;;;;;;4995649;28;20167;-92
2021/01/23 03:13:17;;;;;;;9.07;1.33;;;;;;;;;;5004380;28;20042;-91
2021/01/23 03:15:44;;;;;;;7.80;1.10;;;;;;;;;;4990398;28;20053;-92
2021/01/23 03:18:15;;;;;;;6.78;1.27;;;;;;;;;;4974044;28;20991;-92
2021/01/23 03:20:43;;;;;;;6.97;1.20;;;;;;;;;;4953012;28;20030;-91
2021/01/23 03:23:11;;;;;;;10.10;1.30;;;;;;;;;;4972335;28;20041;-91
2021/01/23 03:25:39;;;;;;;8.63;1.23;;;;;;;;;;5013316;28;20025;-91
2021/01/23 03:28:08;;;;;;;9.45;1.50;;;;;;;;;;5007877;28;20052;-92
2021/01/23 03:30:34;;;;;;;11.35;1.67;;;;;;;;;;5008923;28;20053;-92
2021/01/23 03:33:04;;;;;;;7.10;1.30;;;;;;;;;;4998743;28;20044;-92
2021/01/23 03:35:32;;;;;;;8.77;1.60;;;;;;;;;;4996754;28;20120;-90
2021/01/23 03:37:59;;;;;;;11.32;1.70;;;;;;;;;;5001017;28;20025;-90
2021/01/23 03:40:29;;;;;;;11.55;1.80;;;;;;;;;;5014517;28;20697;-90
2021/01/23 03:42:55;;;;;;;11.50;1.58;;;;;;;;;;4987750;28;20716;-90
2021/01/23 03:45:24;;;;;;;9.63;1.23;;;;;;;;;;5011087;28;20650;-91
2021/01/23 03:47:53;;;;;;;13.50;1.70;;;;;;;;;;4996718;28;20075;-91
2021/01/23 03:50:23;;;;;;;14.23;2.00;;;;;;;;;;4975559;28;20056;-91
2021/01/23 03:52:52;;;;;;;11.13;1.70;;;;;;;;;;4997887;28;20029;-91
2021/01/23 03:55:19;;;;;;;10.40;1.70;;;;;;;;;;4992726;28;20104;-91
2021/01/23 03:57:46;;;;;;;12.02;1.80;;;;;;;;;;4992430;28;20100;-91
2021/01/23 04:00:14;;;;;;;11.20;1.90;;;;;;;;;;5012422;28;20091;-90
2021/01/23 04:02:41;;;;;;;9.40;1.73;;;;;;;;;;5012140;28;20041;-91
2021/01/23 04:05:09;;;;;;;10.40;1.83;;;;;;;;;;4989030;28;20025;-90
2021/01/23 04:07:39;;;;;;;13.07;2.25;;;;;;;;;;5016938;28;20021;-90
2021/01/23 04:10:08;;;;;;;12.95;2.08;;;;;;;;;;5007086;28;20042;-90
2021/01/23 04:12:36;;;;;;;9.63;1.60;;;;;;;;;;4996926;28;20049;-91
2021/01/23 04:15:04;;;;;;;10.25;1.92;;;;;;;;;;4998130;28;20168;-91
2021/01/23 04:17:33;;;;;;;9.93;1.77;;;;;;;;;;4961481;28;20051;-90
2021/01/23 04:20:03;;;;;;;11.10;1.80;;;;;;;;;;4963536;28;20079;-90
2021/01/23 04:22:31;;;;;;;15.90;2.28;;;;;;;;;;4998062;28;20092;-90
2021/01/23 04:25:02;;;;;;;12.38;2.20;;;;;;;;;;4976898;28;20041;-91
2021/01/23 04:27:30;;;;;;;9.80;2.00;;;;;;;;;;4986584;28;20096;-90
2021/01/23 04:30:02;;;;;;;14.60;2.65;;;;;;;;;;4952291;28;20133;-91
2021/01/23 04:32:31;;;;;;;15.55;3.10;;;;;;;;;;4956820;28;20187;-91
2021/01/23 04:35:00;;;;;;;14.18;2.30;;;;;;;;;;4926911;28;20035;-91
2021/01/23 04:37:28;;;;;;;14.65;2.10;;;;;;;;;;4937563;28;20256;-91
2021/01/23 04:39:57;;;;;;;11.50;1.95;;;;;;;;;;4943162;28;20062;-91
2021/01/23 04:42:26;;;;;;;12.00;2.03;;;;;;;;;;4937415;28;20089;-91
2021/01/23 04:44:54;;;;;;;12.57;1.60;;;;;;;;;;4925327;28;20122;-91
2021/01/23 04:47:22;;;;;;;10.07;1.88;;;;;;;;;;4927881;28;20453;-91
2021/01/23 04:49:51;;;;;;;10.05;1.88;;;;;;;;;;4939366;28;20046;-91
2021/01/23 04:52:18;;;;;;;13.40;2.10;;;;;;;;;;4903239;28;20075;-91
2021/01/23 04:54:46;;;;;;;12.38;2.15;;;;;;;;;;4923350;28;20035;-90
2021/01/23 04:57:15;;;;;;;12.60;2.33;;;;;;;;;;4932785;28;20620;-90
2021/01/23 04:59:43;;;;;;;15.18;2.08;;;;;;;;;;4943073;28;20061;-90
2021/01/23 05:02:25;;;;;;;12.27;2.10;;;;;;;;;;4952019;28;20057;-89
2021/01/23 05:04:58;;;;;;;12.77;2.15;;;;;;;;;;4949711;28;20039;-91
2021/01/23 05:07:30;;;;;;;15.32;2.13;;;;;;;;;;4949739;28;20561;-90
2021/01/23 05:10:36;;;;;;;11.98;1.92;;;;;;;;;;4905512;28;20517;-91
2021/01/23 05:13:13;;;;;;;12.23;1.73;;;;;;;;;;4930319;28;20097;-91
2021/01/23 05:15:45;;;;;;;13.02;2.22;;;;;;;;;;4964988;28;20057;-91
2021/01/23 05:18:14;;;;;;;14.45;2.10;;;;;;;;;;4954548;28;21571;-91
2021/01/23 05:20:43;;;;;;;14.02;2.47;;;;;;;;;;4935144;28;20103;-90
2021/01/23 05:23:17;;;;;;;17.10;2.42;;;;;;;;;;4917154;28;20135;-90
2021/01/23 05:25:46;;;;;;;13.88;2.08;;;;;;;;;;4967649;28;20109;-92
2021/01/23 05:28:13;;;;;;;12.40;2.05;;;;;;;;;;4953838;28;20050;-91
2021/01/23 05:30:45;;;;;;;9.38;1.85;;;;;;;;;;4960187;28;20070;-90
2021/01/23 05:33:18;;;;;;;12.52;1.98;;;;;;;;;;4950875;28;20046;-91
2021/01/23 05:35:57;;;;;;;12.60;1.70;;;;;;;;;;4963387;28;20040;-91
2021/01/23 05:38:32;;;;;;;13.52;2.05;;;;;;;;;;4927483;28;20620;-91
2021/01/23 05:41:19;;;;;;;12.65;1.80;;;;;;;;;;4926710;28;20049;-90
2021/01/23 05:43:59;;;;;;;13.35;2.05;;;;;;;;;;4942147;28;20082;-90
2021/01/23 05:46:33;;;;;;;12.43;2.05;;;;;;;;;;4933779;28;20125;-91
2021/01/23 05:49:02;;;;;;;15.15;4.10;;;;;;;;;;4945206;28;20542;-91
2021/01/23 05:51:32;;;;;;;12.02;2.35;;;;;;;;;;4920166;28;20046;-90
2021/01/23 05:54:00;;;;;;;15.52;2.13;;;;;;;;;;4935226;28;20038;-91
2021/01/23 05:56:27;;;;;;;16.70;2.55;;;;;;;;;;4932463;28;20045;-90
2021/01/23 05:58:54;;;;;;;;;;;;;;;;;;4950221;28;20027;-91
2021/01/23 06:01:22;;;;;;;19.15;2.78;;;;;;;;;;4960105;28;19914;-90
2021/01/23 06:03:58;;;;;;;12.05;2.30;;;;;;;;;;4940883;28;20142;-90
2021/01/23 06:06:43;;;;;;;12.63;2.25;;;;;;;;;;4937303;28;20039;-91
2021/01/23 06:09:29;;;;;;;14.50;2.22;;;;;;;;;;4923168;28;20162;-90
2021/01/23 06:11:58;;;;;;;12.40;2.20;;;;;;;;;;4946714;28;20047;-90
2021/01/23 06:14:38;;;;;;;12.55;2.05;;;;;;;;;;4959757;28;20034;-91
2021/01/23 06:17:07;;;;;;;9.20;1.98;;;;;;;;;;4944626;28;20159;-90
2021/01/23 06:19:34;;;;;;;13.95;2.30;;;;;;;;;;4943952;28;20032;-90
2021/01/23 06:22:03;;;;;;;13.20;2.45;;;;;;;;;;4950843;28;20039;-91
2021/01/23 06:24:41;;;;;;;15.20;2.63;;;;;;;;;;4941766;28;20046;-92
2021/01/23 06:27:11;;;;;;;12.20;2.75;;;;;;;;;;4942731;28;20507;-92
2021/01/23 06:29:39;;;;;;;14.15;3.03;;;;;;;;;;4939016;28;20985;-91
2021/01/23 06:32:19;;;;;;;11.27;2.10;;;;;;;;;;4930511;28;20115;-92
2021/01/23 06:34:55;;;;;;;11.93;1.75;;;;;;;;;;4952539;28;20464;-91
2021/01/23 06:37:39;;;;;;;14.40;2.40;;;;;;;;;;4972639;28;20060;-91
2021/01/23 06:40:16;;;;;;;13.98;2.00;;;;;;;;;;4961532;28;20037;-91
2021/01/23 06:42:42;;;;;;;;;;;;;;;;;;4979137;28;20110;-91
2021/01/23 06:45:28;;;;;;;11.88;2.05;;;;;;;;;;4961331;28;20353;-90
2021/01/23 06:48:07;;;;;;;13.60;2.08;;;;;;;;;;4969881;28;20074;-91
2021/01/23 06:50:41;;;;;;;8.05;1.60;;;;;;;;;;4949300;28;20046;-91
2021/01/23 06:53:29;;;;;;;11.90;2.00;;;;;;;;;;4959499;28;20046;-91
2021/01/23 06:55:58;;;;;;;11.48;1.80;;;;;;;;;;4974584;28;20030;-91
2021/01/23 06:58:31;;;;;;;10.50;2.00;;;;;;;;;;4951937;28;20070;-91
2021/01/23 07:01:01;;;;;;;11.73;1.77;;;;;;;;;;4955456;28;21690;-89
2021/01/23 07:03:31;;;;;;;12.32;1.70;;;;;;;;;;4951986;28;20034;-91
2021/01/23 07:06:08;;;;;;;12.27;2.15;;;;;;;;;;4968527;28;20034;-90
2021/01/23 07:08:49;;;;;;;12.50;2.33;;;;;;;;;;4969156;28;20034;-91
2021/01/23 07:11:17;;;;;;;12.30;2.10;;;;;;;;;;4915909;28;20070;-90
2021/01/23 07:13:58;;;;;;;10.88;2.20;;;;;;;;;;4894576;28;20043;-91
2021/01/23 07:16:27;;;;;;;10.52;2.03;;;;;;;;;;4915888;28;20605;-91
2021/01/23 07:18:59;;;;;;;11.38;2.10;;;;;;;;;;4928690;28;20232;-90
2021/01/23 07:21:27;;;;;;;10.95;2.20;;;;;;;;;;4910977;28;20050;-91
2021/01/23 07:23:55;;;;;;;11.18;2.13;;;;;;;;;;4927299;28;20199;-90
2021/01/23 07:26:25;;;;;;;11.63;2.13;;;;;;;;;;4946783;28;21352;-92
2021/01/23 07:28:54;;;;;;;13.43;2.17;;;;;;;;;;4944227;28;20102;-91
2021/01/23 07:31:23;;;;;;;10.77;2.03;;;;;;;;;;4954677;28;20050;-91
2021/01/23 07:33:51;;;;;;;14.98;2.40;;;;;;;;;;4914976;28;20062;-91
2021/01/23 07:36:48;;;;;;;11.52;1.98;;;;;;;;;;4929189;28;20038;-90
2021/01/23 07:39:19;;;;;;;12.15;2.28;;;;;;;;;;4966271;28;20065;-90
2021/01/23 07:41:50;;;;;;;12.90;2.60;;;;;;;;;;4972032;28;20441;-91
2021/01/23 07:44:19;;;;;;;11.52;2.30;;;;;;;;;;4941319;28;20034;-90
2021/01/23 07:46:49;;;;;;;16.35;2.20;;;;;;;;;;4971105;28;20125;-91
2021/01/23 07:49:27;;;;;;;10.73;2.15;;;;;;;;;;4973836;28;20088;-91
2021/01/23 07:52:13;;;;;;;11.30;2.17;;;;;;;;;;4950767;28;20031;-91
2021/01/23 07:54:51;;;;;;;11.35;2.13;;;;;;;;;;5006843;28;20034;-91
2021/01/23 07:57:20;;;;;;;11.98;2.38;;;;;;;;;;5015894;28;20056;-90
2021/01/23 07:59:53;;;;;;;9.98;1.90;;;;;;;;;;4977898;28;20408;-91
2021/01/23 08:02:22;;;;;;;11.05;1.98;;;;;;;;;;5001599;28;20038;-91
2021/01/23 08:04:54;;;;;;;9.55;2.10;;;;;;;;;;5000710;28;20100;-91
2021/01/23 08:07:23;;;;;;;11.50;2.13;;;;;;;;;;5000164;28;20033;-90
2021/01/23 08:10:08;;;;;;;12.50;2.58;;;;;;;;;;4977303;28;20070;-91
2021/01/23 08:12:37;;;;;;;14.55;2.20;;;;;;;;;;4970675;28;20125;-90
2021/01/23 08:15:07;;;;;;;12.88;2.55;;;;;;;;;;4948875;28;20125;-91
2021/01/23 08:17:44;;;;;;;14.02;2.28;;;;;;;;;;4939607;28;20069;-90
2021/01/23 08:20:18;;;;;;;10.80;2.38;;;;;;;;;;4967274;28;21870;-91
2021/01/23 08:23:06;;;;;;;10.70;2.58;;;;;;;;;;4954133;28;20037;-90
2021/01/23 08:25:50;;;;;;;11.15;2.40;;;;;;;;;;4959028;28;20730;-90
2021/01/23 08:28:36;;;;;;;15.13;2.80;;;;;;;;;;4928414;28;20043;-91
2021/01/23 08:31:23;;;;;;;11.70;2.40;;;;;;;;;;4947403;28;20064;-91
2021/01/23 08:33:54;;;;;;;;;;;;;;;;;;4958823;28;20046;-91
2021/01/23 08:36:23;;;;;;;12.32;2.70;;;;;;;;;;4956115;28;21034;-91
2021/01/23 08:39:05;;;;;;;15.15;2.50;;;;;;;;;;4975953;28;20041;-91
2021/01/23 08:41:34;;;;;;;11.98;2.80;;;;;;;;;;4970967;28;20903;-90
2021/01/23 08:44:06;;;;;;;12.88;2.65;;;;;;;;;;4967668;28;20099;-90
2021/01/23 08:46:36;;;;;;;10.40;2.35;;;;;;;;;;4959262;28;20035;-91
2021/01/23 08:49:04;;;;;;;12.13;1.98;;;;;;;;;;4981601;28;20069;-90
2021/01/23 08:51:33;;;;;;;12.68;2.13;;;;;;;;;;4981738;28;21176;-90
2021/01/23 08:54:22;;;;;;;9.98;1.90;;;;;;;;;;4943171;28;20034;-90
2021/01/23 08:56:50;;;;;;;12.75;2.03;;;;;;;;;;4923555;28;20046;-90
2021/01/23 08:59:17;;;;;;;11.93;2.08;;;;;;;;;;4950485;28;20426;-91
2021/01/23 09:01:46;;;;;;;12.05;2.00;;;;;;;;;;4952313;28;20395;-90
2021/01/23 09:04:14;;;;;;;9.48;2.28;;;;;;;;;;4937358;28;20093;-90
2021/01/23 09:06:41;;;;;;;9.23;1.75;;;;;;;;;;4950773;28;20038;-91
2021/01/23 09:09:10;;;;;;;11.02;2.20;;;;;;;;;;4932436;28;20035;-92
2021/01/23 09:11:39;;;;;;;12.50;2.67;;;;;;;;;;4947507;28;20147;-92
2021/01/23 09:14:07;;;;;;;13.90;2.60;;;;;;;;;;4928350;28;20475;-90
2021/01/23 09:16:34;;;;;;;10.35;2.17;;;;;;;;;;4946219;28;20042;-92
2021/01/23 09:19:04;;;;;;;9.55;2.25;;;;;;;;;;4935409;28;20045;-92
2021/01/23 09:21:32;;;;;;;8.93;2.10;;;;;;;;;;4943199;28;20035;-91
2021/01/23 09:24:03;;;;;;;9.40;2.35;;;;;;;;;;4934752;28;20134;-92
2021/01/23 09:26:31;;;;;;;9.25;2.22;;;;;;;;;;4924661;28;20038;-92
2021/01/23 09:28:59;;;;;;;8.93;1.80;;;;;;;;;;4971298;28;20447;-91
2021/01/23 09:31:26;;;;;;;9.80;2.33;;;;;;;;;;4949967;28;20043;-90
2021/01/23 09:34:03;;;;;;;12.13;2.20;;;;;;;;;;4937885;28;20050;-91
2021/01/23 09:36:32;;;;;;;11.57;2.45;;;;;;;;;;4939480;28;20148;-87
2021/01/23 09:39:03;;;;;;;10.32;2.40;;;;;;;;;;4945086;28;20066;-88
2021/01/23 09:41:30;;;;;;;11.82;1.90;;;;;;;;;;4919304;28;20671;-90
2021/01/23 09:43:57;;;;;;;12.55;2.55;;;;;;;;;;4910907;28;20494;-91
2021/01/23 09:46:26;;;;;;;13.18;2.35;;;;;;;;;;4944885;28;20161;-90
2021/01/23 09:48:58;;;;;;;12.80;2.55;;;;;;;;;;4927601;28;20050;-90
2021/01/23 09:51:28;;;;;;;12.90;2.30;;;;;;;;;;4941738;28;20109;-90
2021/01/23 09:53:58;;;;;;;10.93;2.10;;;;;;;;;;4948092;28;20588;-89
2021/01/23 09:56:25;;;;;;;8.77;2.17;;;;;;;;;;4954293;28;20079;-88
2021/01/23 09:58:54;;;;;;;11.90;2.28;;;;;;;;;;4962389;28;20573;-90
2021/01/23 10:01:22;;;;;;;10.85;1.88;;;;;;;;;;4939376;28;20371;-89
2021/01/23 10:03:52;;;;;;;10.70;2.13;;;;;;;;;;4966899;28;20794;-89
2021/01/23 10:06:22;;;;;;;9.95;1.88;;;;;;;;;;4949881;28;20038;-88
2021/01/23 10:08:56;;;;;;;9.75;1.88;;;;;;;;;;4944052;28;20133;-83
2021/01/23 10:11:33;;;;;;;9.77;1.83;;;;;;;;;;4930125;28;20049;-92
2021/01/23 10:14:09;;;;;;;8.48;2.05;;;;;;;;;;4929236;28;20046;-89
2021/01/23 10:16:47;;;;;;;;;;;;;;;;;;;;;
2021/01/23 10:19:15;;;;;;;9.85;1.60;;;;;;;;;;4923372;28;20043;-92
2021/01/23 10:21:46;;;;;;;10.60;1.80;;;;;;;;;;4900015;28;20048;-92
2021/01/23 10:24:15;;;;;;;9.88;1.88;;;;;;;;;;4939785;28;20057;-91
2021/01/23 10:26:44;;;;;;;12.35;2.38;;;;;;;;;;4942133;28;20053;-90
2021/01/23 10:29:20;;;;;;;12.30;2.28;;;;;;;;;;4942093;28;20053;-91
2021/01/23 10:32:01;;;;;;;10.52;2.30;;;;;;;;;;4974143;28;20037;-89
2021/01/23 10:34:29;;;;;;;12.15;1.95;;;;;;;;;;4956711;28;20033;-85
2021/01/23 10:36:56;;;;;;;10.15;2.05;;;;;;;;;;4983740;28;20041;-85
2021/01/23 10:39:22;;;;;;;9.93;2.25;;;;;;;;;;4968991;28;20576;-85
2021/01/23 10:41:51;;;;;;;12.45;2.40;;;;;;;;;;4953042;28;20077;-87
2021/01/23 10:44:22;;;;;;;12.35;2.47;;;;;;;;;;4959768;28;20030;-87
2021/01/23 10:46:50;;;;;;;10.38;2.45;;;;;;;;;;4975028;28;20104;-88
2021/01/23 10:49:19;;;;;;;11.52;3.25;;;;;;;;;;4955386;28;20034;-86
2021/01/23 10:51:49;;;;;;;10.48;2.20;;;;;;;;;;4982145;28;20034;-86
2021/01/23 10:54:16;;;;;;;7.97;1.77;;;;;;;;;;4946626;28;20066;-86
2021/01/23 10:56:46;;;;;;;12.13;2.47;;;;;;;;;;4964573;28;20050;-86
2021/01/23 10:59:19;;;;;;;12.85;2.38;;;;;;;;;;4932397;28;20046;-88
2021/01/23 11:01:48;;;;;;;13.35;2.80;;;;;;;;;;4986387;28;20133;-84
2021/01/23 11:04:18;;;;;;;12.00;2.38;;;;;;;;;;4938888;28;20034;-86
2021/01/23 11:06:44;;;;;;;11.02;2.10;;;;;;;;;;4937253;28;20042;-86
2021/01/23 11:09:10;;;;;;;10.82;2.20;;;;;;;;;;4978961;28;20022;-89
2021/01/23 11:11:39;;;;;;;11.10;2.20;;;;;;;;;;4979949;28;20029;-87
2021/01/23 11:14:08;;;;;;;9.27;2.28;;;;;;;;;;4963008;28;20053;-87
2021/01/23 11:16:36;;;;;;;12.73;2.60;;;;;;;;;;4982246;28;20034;-90
2021/01/23 11:19:05;;;;;;;14.73;2.90;;;;;;;;;;4973247;28;20050;-89
2021/01/23 11:21:34;;;;;;;13.02;2.28;;;;;;;;;;4977400;28;20092;-89
2021/01/23 11:24:05;;;;;;;13.02;2.63;;;;;;;;;;4977975;28;20052;-89
2021/01/23 11:26:32;;;;;;;12.02;2.15;;;;;;;;;;4969142;28;20034;-89
2021/01/23 11:29:01;;;;;;;11.45;2.10;;;;;;;;;;4969550;28;20177;-89
2021/01/23 11:37:40;;;;;;;11.75;2.30;;;;;;;;;;4886933;29;20580;-89
2021/01/23 11:40:31;;;;;;;8.90;2.05;;;;;;;;;;4880638;29;20468;-88
2021/01/23 11:42:59;;;;;;;11.18;2.53;;;;;;;;;;4835535;29;20040;-88
2021/01/23 11:45:28;;;;;;;12.02;2.50;;;;;;;;;;4829888;29;20049;-87
2021/01/23 11:47:57;;;;;;;10.07;2.50;;;;;;;;;;4884844;29;20148;-88
2021/01/23 11:50:24;;;;;;;8.65;1.95;;;;;;;;;;4868160;29;20171;-88
2021/01/23 11:52:51;;;;;;;9.18;2.05;;;;;;;;;;4870429;29;20044;-86
2021/01/23 11:55:19;;;;;;;12.45;2.40;;;;;;;;;;4864387;29;20484;-86
2021/01/23 11:57:47;;;;;;;10.10;2.63;;;;;;;;;;4867918;29;20041;-87
2021/01/23 12:00:16;;;;;;;12.60;2.08;;;;;;;;;;4863196;29;20047;-87
2021/01/23 12:02:45;;;;;;;10.68;2.00;;;;;;;;;;4882805;28;20048;-88
2021/01/23 12:05:21;;;;;;;11.48;2.67;;;;;;;;;;4886003;28;20047;-87
2021/01/23 12:07:49;;;;;;;8.70;1.70;;;;;;;;;;4878649;29;20040;-89
2021/01/23 12:10:19;;;;;;;8.57;1.73;;;;;;;;;;4884295;29;20134;-87
2021/01/23 12:12:48;;;;;;;9.02;1.83;;;;;;;;;;4832135;29;20051;-90
2021/01/23 12:15:36;;;;;;;8.00;2.00;;;;;;;;;;4902011;28;20035;-87
2021/01/23 12:18:04;;;;;;;10.15;2.20;;;;;;;;;;4924987;28;20046;-86
2021/01/23 12:20:34;;;;;;;9.07;1.88;;;;;;;;;;4937822;28;20046;-86
2021/01/23 12:23:18;;;;;;;8.27;1.80;;;;;;;;;;4943899;28;20058;-87
2021/01/23 12:25:48;;;;;;;10.38;2.55;;;;;;;;;;4969917;28;20601;-86
2021/01/23 12:28:16;;;;;;;10.55;3.33;;;;;;;;;;4952222;28;20066;-88
2021/01/23 12:30:43;;;;;;;9.52;2.40;;;;;;;;;;4951448;28;20434;-85
2021/01/23 12:33:17;;;;;;;9.57;2.38;;;;;;;;;;4887626;28;20043;-88
2021/01/23 12:35:49;;;;;;;9.27;2.67;;;;;;;;;;4924290;28;20080;-87
2021/01/23 12:38:17;;;;;;;9.88;2.22;;;;;;;;;;4940753;28;20038;-86
2021/01/23 12:40:44;;;;;;;10.10;2.38;;;;;;;;;;4999461;28;20037;-90
2021/01/23 12:43:12;;;;;;;9.57;2.50;;;;;;;;;;4950932;28;20053;-87
2021/01/23 12:45:44;;;;;;;11.25;3.55;;;;;;;;;;4964401;28;20041;-87
2021/01/23 12:48:36;;;;;;;12.02;2.55;;;;;;;;;;4961085;28;20092;-89
2021/01/23 12:51:04;;;;;;;13.50;3.63;;;;;;;;;;4989472;28;20050;-88
2021/01/23 12:53:46;;;;;;;11.50;2.80;;;;;;;;;;4955287;28;20046;-89
2021/01/23 12:56:15;;;;;;;13.00;3.40;;;;;;;;;;4972183;28;20044;-89
2021/01/23 12:59:04;;;;;;;11.82;2.80;;;;;;;;;;4995976;28;20623;-88
2021/01/23 13:01:42;;;;;;;11.00;2.42;;;;;;;;;;4952513;28;20160;-93
2021/01/23 13:04:12;;;;;;;11.93;2.65;;;;;;;;;;4978344;28;20068;-89
2021/01/23 13:06:41;;;;;;;12.25;2.70;;;;;;;;;;4959892;28;20529;-88
2021/01/23 13:09:11;;;;;;;12.27;2.95;;;;;;;;;;4971962;28;20058;-88
2021/01/23 13:11:41;;;;;;;10.43;2.40;;;;;;;;;;4956312;28;20124;-86
2021/01/23 13:14:09;;;;;;;10.63;2.45;;;;;;;;;;4979103;28;20033;-87
2021/01/23 13:16:43;;;;;;;11.13;2.88;;;;;;;;;;4984330;28;20047;-88
2021/01/23 13:19:14;;;;;;;14.30;3.92;;;;;;;;;;4943720;28;20046;-91
2021/01/23 13:21:43;;;;;;;12.27;2.70;;;;;;;;;;4958433;28;20048;-90
2021/01/23 13:24:11;;;;;;;8.77;2.90;;;;;;;;;;4937182;28;20035;-90
2021/01/23 13:26:38;;;;;;;10.80;2.72;;;;;;;;;;4961994;28;20045;-90
2021/01/23 13:29:06;;;;;;;9.02;2.10;;;;;;;;;;4969695;28;20023;-89
2021/01/23 13:31:34;;;;;;;14.55;2.53;;;;;;;;;;4966138;28;20105;-89
2021/01/23 13:34:06;;;;;;;11.10;2.38;;;;;;;;;;4961968;28;20398;-89
2021/01/23 13:36:35;;;;;;;10.35;2.45;;;;;;;;;;4929310;28;20039;-89
2021/01/23 13:39:06;;;;;;;8.75;2.45;;;;;;;;;;4925320;28;20038;-88
2021/01/23 13:41:36;;;;;;;9.43;2.72;;;;;;;;;;4932846;28;20118;-90
2021/01/23 13:44:03;;;;;;;11.10;2.70;;;;;;;;;;4946030;28;20027;-88
2021/01/23 13:46:33;;;;;;;11.35;2.10;;;;;;;;;;4954351;28;20150;-88
2021/01/23 13:49:04;;;;;;;9.45;2.42;;;;;;;;;;4967421;28;20150;-88
2021/01/23 13:51:30;;;;;;;14.57;3.67;;;;;;;;;;4948574;28;20042;-87
2021/01/23 13:53:59;;;;;;;13.40;3.22;;;;;;;;;;4933066;28;20050;-88
2021/01/23 13:56:26;;;;;;;10.48;2.72;;;;;;;;;;4938508;28;20042;-88
2021/01/23 13:58:54;;;;;;;11.32;2.72;;;;;;;;;;4941942;28;20210;-88
2021/01/23 14:01:21;;;;;;;11.18;3.33;;;;;;;;;;4933773;28;20232;-88
2021/01/23 14:03:49;;;;;;;11.27;2.92;;;;;;;;;;4914255;28;20030;-89
2021/01/23 14:06:26;;;;;;;11.05;2.38;;;;;;;;;;4904159;28;20133;-90
2021/01/23 14:08:56;;;;;;;11.90;2.40;;;;;;;;;;4924519;28;20047;-90
2021/01/23 14:11:23;;;;;;;11.90;2.50;;;;;;;;;;4955961;28;20050;-90
2021/01/23 14:13:52;;;;;;;10.85;2.60;;;;;;;;;;4982913;28;20068;-91
2021/01/23 14:16:20;;;;;;;13.70;2.33;;;;;;;;;;4948913;28;20039;-90
2021/01/23 14:18:52;;;;;;;13.43;2.78;;;;;;;;;;4977247;28;20042;-90
2021/01/23 14:21:25;;;;;;;11.75;2.45;;;;;;;;;;4956340;28;20031;-90
2021/01/23 14:23:54;;;;;;;14.25;3.63;;;;;;;;;;4966083;28;20042;-90
2021/01/23 14:26:21;;;;;;;20.45;3.72;;;;;;;;;;4963920;28;20083;-89
2021/01/23 14:28:52;;;;;;;11.85;2.90;;;;;;;;;;4986484;28;20105;-92
2021/01/23 14:31:21;;;;;;;13.02;2.40;;;;;;;;;;4985663;28;20205;-88
2021/01/23 14:33:50;;;;;;;13.77;2.78;;;;;;;;;;5001800;28;20042;-90
2021/01/23 14:36:18;;;;;;;13.23;2.80;;;;;;;;;;4985725;28;20143;-90
2021/01/23 14:38:46;;;;;;;12.38;2.60;;;;;;;;;;4958469;28;20633;-90
2021/01/23 14:41:13;;;;;;;12.43;2.92;;;;;;;;;;4953839;28;20058;-89
2021/01/23 14:43:42;;;;;;;12.50;2.90;;;;;;;;;;4968935;28;20476;-89
2021/01/23 14:46:12;;;;;;;15.82;3.33;;;;;;;;;;4965055;28;20030;-89
2021/01/23 14:48:39;;;;;;;12.27;2.88;;;;;;;;;;4954615;28;20038;-89
2021/01/23 14:51:07;;;;;;;14.40;3.00;;;;;;;;;;4944497;28;20495;-89
2021/01/23 14:53:34;;;;;;;15.18;3.45;;;;;;;;;;4951665;28;20121;-89
2021/01/23 14:56:10;;;;;;;14.43;3.20;;;;;;;;;;4910230;28;20156;-88
2021/01/23 14:58:39;;;;;;;12.93;3.00;;;;;;;;;;4948304;28;20126;-89
2021/01/23 15:01:07;;;;;;;14.23;3.78;;;;;;;;;;4904666;28;20575;-87
2021/01/23 15:03:35;;;;;;;12.65;2.80;;;;;;;;;;4873883;28;20047;-90
2021/01/23 15:06:05;;;;;;;11.73;3.03;;;;;;;;;;4939733;28;20122;-89